Time;durP1;ratioP1;P1;durP2;ratioP2;P2;SDS_P1;SDS_P2;PMS_P1;PMS_P2;Temp;Humidity;BMP_temperature;BMP_pressure;BME280_temperature;BME280_humidity;BME280_pressure;Samples;Min_cycle;Max_cycle;Signal;HPM_P1;HPM_P2
2023/05/19 00:00:30;;;;;;;2.60;1.83;;;5.00;99.90;;;;;;8345559;28;20174;-69
2023/05/19 00:04:32;;;;;;;2.77;2.00;;;5.00;1.00;;;;;;8346779;28;20206;-69
2023/05/19 00:08:33;;;;;;;2.60;1.70;;;5.00;1.00;;;;;;8350924;28;20201;-70
2023/05/19 00:12:35;;;;;;;2.50;1.90;;;5.00;55.10;;;;;;8332736;28;20207;-71
2023/05/19 00:16:37;;;;;;;3.33;2.10;;;4.90;99.90;;;;;;8348545;28;20185;-68
2023/05/19 00:20:37;;;;;;;2.40;1.90;;;4.90;99.90;;;;;;8338458;28;20186;-70
2023/05/19 00:24:38;;;;;;;5.03;2.70;;;4.90;99.90;;;;;;8345825;28;20258;-70
2023/05/19 00:28:42;;;;;;;3.03;2.20;;;4.90;99.90;;;;;;8350489;28;20188;-69
2023/05/19 00:32:43;;;;;;;3.63;2.40;;;4.90;1.00;;;;;;8349092;28;20201;-71
2023/05/19 00:36:44;;;;;;;3.63;2.63;;;4.80;1.00;;;;;;8355243;28;20193;-70
2023/05/19 00:40:45;;;;;;;3.53;2.60;;;4.80;1.00;;;;;;8358525;28;20245;-70
2023/05/19 00:44:46;;;;;;;3.63;2.23;;;4.80;37.90;;;;;;8345327;28;20189;-70
2023/05/19 00:48:47;;;;;;;3.50;2.20;;;4.80;39.80;;;;;;8346715;28;20324;-70
2023/05/19 00:52:49;;;;;;;2.40;1.90;;;4.70;99.90;;;;;;8344048;28;20213;-70
2023/05/19 00:56:50;;;;;;;3.20;1.90;;;4.70;99.90;;;;;;8349232;28;20191;-70
2023/05/19 01:00:52;;;;;;;2.50;2.00;;;4.70;99.90;;;;;;8347199;28;20186;-70
2023/05/19 01:04:55;;;;;;;2.43;2.03;;;4.60;1.00;;;;;;8341790;28;20212;-70
2023/05/19 01:09:02;;;;;;;2.70;2.37;;;4.60;55.40;;;;;;8346067;28;20217;-70
2023/05/19 01:13:04;;;;;;;2.70;2.20;;;4.60;99.90;;;;;;8351532;28;20201;-70
2023/05/19 01:17:13;;;;;;;2.67;1.90;;;4.60;99.90;;;;;;8327906;28;20182;-69
2023/05/19 01:21:36;;;;;;;3.73;2.43;;;4.60;99.90;;;;;;8353864;28;20202;-69
2023/05/19 01:26:03;;;;;;;3.53;2.20;;;4.60;1.00;;;;;;8352142;28;20186;-68
2023/05/19 01:30:24;;;;;;;2.27;2.07;;;4.60;99.90;;;;;;8362974;28;20256;-69
2023/05/19 01:34:26;;;;;;;3.53;2.67;;;4.70;99.90;;;;;;8347889;28;20285;-70
2023/05/19 01:38:32;;;;;;;2.93;2.03;;;4.70;99.90;;;;;;8343644;28;20220;-70
2023/05/19 01:42:36;;;;;;;3.13;2.13;;;4.70;99.90;;;;;;8330156;28;20194;-70
2023/05/19 01:46:40;;;;;;;2.60;2.17;;;4.70;99.90;;;;;;8346119;28;20191;-70
2023/05/19 01:50:42;;;;;;;2.80;2.23;;;4.70;99.90;;;;;;8334013;28;20190;-70
2023/05/19 01:54:43;;;;;;;4.03;2.47;;;4.70;99.90;;;;;;8347030;28;20323;-71
2023/05/19 01:58:49;;;;;;;2.77;1.97;;;4.60;1.00;;;;;;8353479;28;20205;-70
2023/05/19 02:02:50;;;;;;;3.83;2.20;;;4.60;1.00;;;;;;8369079;28;20212;-71
2023/05/19 02:07:08;;;;;;;4.10;2.87;;;4.60;1.00;;;;;;8359727;28;20204;-70
2023/05/19 02:11:33;;;;;;;3.60;2.50;;;4.60;99.90;;;;;;8336034;28;20344;-70
2023/05/19 02:15:41;;;;;;;5.43;3.37;;;4.60;99.90;;;;;;8352304;28;20192;-70
2023/05/19 02:19:43;;;;;;;3.30;3.00;;;4.60;99.90;;;;;;8353091;28;20181;-70
2023/05/19 02:23:44;;;;;;;4.03;2.63;;;4.60;99.90;;;;;;8355296;28;20193;-70
2023/05/19 02:27:45;;;;;;;3.17;2.53;;;4.50;83.00;;;;;;8344490;28;20190;-71
2023/05/19 02:31:47;;;;;;;3.27;2.83;;;4.50;99.90;;;;;;8347207;28;20209;-70
2023/05/19 02:35:48;;;;;;;4.23;2.80;;;4.50;1.00;;;;;;8357888;28;20183;-70
2023/05/19 02:39:49;;;;;;;4.10;2.80;;;4.50;99.90;;;;;;8350529;28;20287;-71
2023/05/19 02:43:50;;;;;;;3.30;2.73;;;4.50;1.00;;;;;;8354836;28;20217;-72
2023/05/19 02:47:50;;;;;;;3.67;3.03;;;4.50;99.90;;;;;;8352037;28;20438;-70
2023/05/19 02:51:52;;;;;;;5.93;4.03;;;4.50;1.00;;;;;;8348085;28;20206;-71
2023/05/19 02:55:56;;;;;;;5.03;3.90;;;4.50;99.90;;;;;;8346372;28;20212;-71
2023/05/19 03:00:00;;;;;;;4.37;3.27;;;4.50;1.00;;;;;;8356799;28;20186;-71
2023/05/19 03:04:01;;;;;;;4.53;3.03;;;4.50;1.00;;;;;;8345607;28;20248;-70
2023/05/19 03:08:02;;;;;;;4.23;2.83;;;4.50;1.00;;;;;;8346149;28;20205;-69
2023/05/19 03:12:05;;;;;;;4.20;3.43;;;4.50;99.90;;;;;;8346720;28;20209;-70
2023/05/19 03:16:10;;;;;;;3.50;2.97;;;4.60;1.00;;;;;;8356226;28;20191;-72
2023/05/19 03:20:13;;;;;;;3.17;2.87;;;4.60;1.00;;;;;;8350011;28;20193;-72
2023/05/19 03:24:15;;;;;;;4.53;3.60;;;4.70;99.90;;;;;;8354432;28;20242;-72
2023/05/19 03:28:18;;;;;;;5.40;3.50;;;4.80;1.00;;;;;;8350166;28;20236;-72
2023/05/19 03:32:19;;;;;;;4.90;3.53;;;4.90;99.90;;;;;;8349523;28;20236;-73
2023/05/19 03:36:30;;;;;;;4.90;3.60;;;5.00;99.90;;;;;;8343625;28;20189;-72
2023/05/19 03:40:31;;;;;;;4.20;3.40;;;5.10;99.90;;;;;;8341701;28;20232;-74
2023/05/19 03:44:35;;;;;;;4.63;3.60;;;5.20;1.00;;;;;;8336265;28;20186;-75
2023/05/19 03:48:36;;;;;;;4.50;3.80;;;5.40;1.00;;;;;;8363399;28;20186;-74
2023/05/19 03:52:38;;;;;;;5.23;4.17;;;5.50;99.90;;;;;;8345226;28;20244;-73
2023/05/19 03:56:41;;;;;;;5.87;4.60;;;5.70;65.10;;;;;;8345166;28;20246;-72
2023/05/19 04:00:42;;;;;;;5.10;3.67;;;5.90;93.70;;;;;;8347999;28;20193;-73
2023/05/19 04:04:43;;;;;;;5.93;4.47;;;6.00;87.80;;;;;;8345713;28;20238;-72
2023/05/19 04:08:46;;;;;;;5.67;4.53;;;6.10;1.00;;;;;;8346416;28;20224;-73
2023/05/19 04:12:47;;;;;;;5.63;3.80;;;6.40;99.90;;;;;;8363043;28;20289;-73
2023/05/19 04:16:49;;;;;;;4.37;3.67;;;6.80;99.90;;;;;;8348814;28;20177;-73
2023/05/19 04:20:50;;;;;;;8.20;4.27;;;7.30;99.90;;;;;;8347396;28;20185;-71
2023/05/19 04:24:51;;;;;;;5.83;4.27;;;7.40;99.90;;;;;;8347099;28;20186;-70
2023/05/19 04:28:53;;;;;;;5.87;4.07;;;7.50;99.90;;;;;;8362709;28;20221;-71
2023/05/19 04:32:56;;;;;;;5.47;3.63;;;7.50;99.90;;;;;;8352398;28;20197;-72
2023/05/19 04:36:58;;;;;;;8.10;4.33;;;7.50;99.90;;;;;;8349500;28;20285;-72
2023/05/19 04:41:00;;;;;;;5.00;3.67;;;7.50;99.90;;;;;;8348862;28;20181;-73
2023/05/19 04:45:02;;;;;;;5.87;4.63;;;7.60;99.90;;;;;;8350082;28;20192;-72
2023/05/19 04:49:02;;;;;;;5.47;4.40;;;7.80;22.90;;;;;;8351407;28;20219;-72
2023/05/19 04:53:14;;;;;;;;;;;;;;;;;;;;;
2023/05/19 04:57:16;;;;;;;6.90;5.77;;;8.00;99.90;;;;;;8347107;28;20197;-72
2023/05/19 05:01:20;;;;;;;8.33;5.10;;;8.10;99.90;;;;;;8347144;28;20192;-71
2023/05/19 05:05:21;;;;;;;6.53;4.97;;;8.20;85.60;;;;;;8346549;28;20224;-73
2023/05/19 05:09:22;;;;;;;7.87;5.77;;;8.40;54.70;;;;;;8349666;28;20285;-72
2023/05/19 05:13:23;;;;;;;9.50;6.30;;;8.80;1.00;;;;;;8347037;28;20261;-72
2023/05/19 05:17:25;;;;;;;8.00;5.33;;;9.30;1.00;;;;;;8353171;28;20189;-72
2023/05/19 05:21:28;;;;;;;5.53;4.50;;;9.70;99.90;;;;;;8347186;28;20235;-73
2023/05/19 05:25:30;;;;;;;8.17;4.30;;;10.00;99.90;;;;;;8354256;28;20205;-72
2023/05/19 05:29:31;;;;;;;5.80;5.20;;;10.20;99.90;;;;;;8351075;28;20193;-73
2023/05/19 05:33:32;;;;;;;8.30;6.47;;;10.50;99.90;;;;;;8357442;28;20292;-73
2023/05/19 05:37:33;;;;;;;8.80;5.97;;;10.60;99.90;;;;;;8354097;28;20182;-73
2023/05/19 05:41:34;;;;;;;11.80;6.13;;;10.70;99.90;;;;;;8350832;28;20190;-71
2023/05/19 05:45:35;;;;;;;9.53;8.03;;;10.80;99.90;;;;;;8357604;28;20356;-72
2023/05/19 05:49:36;;;;;;;12.17;10.23;;;10.90;99.90;;;;;;8352039;28;20187;-73
2023/05/19 05:53:42;;;;;;;6.17;5.53;;;10.90;99.90;;;;;;8354807;28;20215;-72
2023/05/19 05:57:43;;;;;;;6.40;4.77;;;11.10;99.90;;;;;;8353940;28;20180;-71
2023/05/19 06:01:44;;;;;;;6.10;4.17;;;11.40;99.90;;;;;;8361860;28;20189;-71
2023/05/19 06:05:45;;;;;;;5.13;4.13;;;11.60;99.90;;;;;;8348515;28;20251;-72
2023/05/19 06:09:46;;;;;;;6.57;3.27;;;11.90;99.90;;;;;;8367414;28;20210;-70
2023/05/19 06:13:46;;;;;;;6.93;4.10;;;12.30;99.90;;;;;;8353530;28;20206;-72
2023/05/19 06:17:48;;;;;;;5.53;3.47;;;12.60;99.90;;;;;;8347403;28;20190;-72
2023/05/19 06:21:49;;;;;;;4.77;3.70;;;12.90;94.70;;;;;;8349608;28;20185;-71
2023/05/19 06:25:50;;;;;;;7.30;3.43;;;13.20;77.60;;;;;;8349415;28;20190;-71
2023/05/19 06:29:51;;;;;;;4.77;3.00;;;13.50;49.00;;;;;;8354977;28;20204;-69
2023/05/19 06:33:55;;;;;;;4.83;3.40;;;13.70;30.50;;;;;;8347150;28;20224;-73
2023/05/19 06:37:59;;;;;;;5.30;3.10;;;13.90;24.80;;;;;;8362054;28;20188;-71
2023/05/19 06:42:00;;;;;;;4.30;2.43;;;14.10;10.60;;;;;;8351621;28;20198;-72
2023/05/19 06:46:01;;;;;;;3.80;2.53;;;14.20;1.00;;;;;;8357005;28;20200;-71
2023/05/19 06:50:03;;;;;;;4.60;2.73;;;14.40;1.00;;;;;;8364503;28;20193;-71
2023/05/19 06:54:04;;;;;;;4.20;2.70;;;14.50;1.00;;;;;;8357311;28;20221;-71
2023/05/19 06:58:05;;;;;;;3.47;2.07;;;14.60;1.00;;;;;;8354144;28;20208;-72
2023/05/19 07:02:12;;;;;;;4.30;2.33;;;14.60;1.00;;;;;;8351587;28;20242;-69
2023/05/19 07:06:15;;;;;;;5.90;3.10;;;14.60;1.00;;;;;;8362250;28;20182;-70
2023/05/19 07:10:16;;;;;;;3.87;2.20;;;14.60;1.00;;;;;;8349903;28;20193;-72
2023/05/19 07:14:17;;;;;;;3.13;2.23;;;14.60;1.00;;;;;;8359023;28;20224;-72
2023/05/19 07:18:18;;;;;;;3.57;2.07;;;14.60;1.00;;;;;;8348944;28;20200;-69
2023/05/19 07:22:22;;;;;;;4.97;2.00;;;15.00;1.00;;;;;;8336117;28;20265;-71
2023/05/19 07:26:26;;;;;;;3.40;2.20;;;15.30;1.00;;;;;;8358597;28;20188;-71
2023/05/19 07:30:28;;;;;;;6.40;2.53;;;15.50;1.00;;;;;;8344580;28;20186;-70
2023/05/19 07:34:29;;;;;;;4.03;2.27;;;15.50;1.00;;;;;;8344985;28;20244;-69
2023/05/19 07:38:33;;;;;;;3.47;1.87;;;15.60;1.00;;;;;;8354747;28;20190;-69
2023/05/19 07:42:34;;;;;;;7.70;1.90;;;15.70;1.00;;;;;;8348186;28;20209;-69
2023/05/19 07:46:36;;;;;;;6.83;3.63;;;15.70;1.00;;;;;;8344069;28;20186;-70
2023/05/19 07:50:37;;;;;;;2.23;1.77;;;15.90;1.00;;;;;;8352803;28;20285;-68
2023/05/19 07:54:41;;;;;;;3.00;1.70;;;15.90;1.00;;;;;;8344105;28;20236;-72
2023/05/19 07:58:51;;;;;;;3.03;1.50;;;15.90;1.00;;;;;;8348192;28;20280;-70
2023/05/19 08:02:52;;;;;;;3.90;1.70;;;16.00;1.00;;;;;;8349201;28;20206;-70
2023/05/19 08:06:53;;;;;;;3.77;1.67;;;16.30;1.00;;;;;;8345603;28;20194;-69
2023/05/19 08:11:00;;;;;;;3.83;1.90;;;16.10;1.00;;;;;;8354626;28;20185;-70
2023/05/19 08:15:01;;;;;;;3.20;2.10;;;16.20;1.00;;;;;;8339362;28;20228;-71
2023/05/19 08:19:06;;;;;;;2.53;1.83;;;16.30;1.00;;;;;;8342680;28;20185;-70
2023/05/19 08:23:07;;;;;;;4.37;2.27;;;16.60;1.00;;;;;;8345517;28;20196;-68
2023/05/19 08:27:08;;;;;;;3.83;2.20;;;16.60;1.00;;;;;;8356282;28;20193;-68
2023/05/19 08:31:09;;;;;;;4.83;2.37;;;16.80;1.00;;;;;;8355315;28;20189;-67
2023/05/19 08:35:10;;;;;;;4.23;2.33;;;16.50;1.00;;;;;;8349259;28;20244;-68
2023/05/19 08:39:12;;;;;;;5.77;2.23;;;16.00;1.00;;;;;;8348386;28;20265;-68
2023/05/19 08:43:13;;;;;;;4.17;2.10;;;15.90;1.00;;;;;;8346487;28;20190;-69
2023/05/19 08:47:14;;;;;;;3.37;2.23;;;16.00;1.00;;;;;;8351067;28;20198;-69
2023/05/19 08:51:34;;;;;;;4.87;2.53;;;16.10;1.00;;;;;;8346657;28;20198;-69
2023/05/19 08:55:45;;;;;;;4.93;2.40;;;16.00;1.00;;;;;;8336541;28;20249;-68
2023/05/19 08:59:48;;;;;;;4.90;2.70;;;15.70;1.00;;;;;;8344575;28;20195;-67
2023/05/19 09:03:49;;;;;;;6.17;2.37;;;15.40;1.00;;;;;;8342965;28;20324;-67
2023/05/19 09:07:50;;;;;;;4.53;3.50;;;15.10;1.00;;;;;;8355018;28;20201;-69
2023/05/19 09:11:52;;;;;;;3.10;1.80;;;14.80;1.00;;;;;;8354668;28;20214;-68
2023/05/19 09:15:55;;;;;;;4.93;2.17;;;14.70;1.00;;;;;;8348380;28;20186;-69
2023/05/19 09:19:55;;;;;;;3.63;2.40;;;14.50;1.00;;;;;;8345423;28;20253;-69
2023/05/19 09:24:06;;;;;;;2.63;1.93;;;14.30;1.00;;;;;;8347843;28;20190;-67
2023/05/19 09:28:08;;;;;;;3.33;1.90;;;14.30;1.00;;;;;;8364608;28;20240;-67
2023/05/19 09:32:11;;;;;;;2.40;2.17;;;14.60;1.00;;;;;;8346343;28;20221;-68
2023/05/19 09:36:13;;;;;;;3.70;2.57;;;15.20;1.00;;;;;;8349403;28;20184;-67
2023/05/19 09:40:17;;;;;;;6.37;4.20;;;15.70;1.00;;;;;;8351718;28;20186;-66
2023/05/19 09:44:28;;;;;;;5.10;3.03;;;16.20;1.00;;;;;;8346448;28;20277;-66
2023/05/19 09:48:34;;;;;;;7.00;4.50;;;16.50;1.00;;;;;;8350867;28;20231;-67
2023/05/19 09:52:41;;;;;;;7.50;5.13;;;16.60;1.00;;;;;;8347358;28;20210;-69
2023/05/19 09:57:01;;;;;;;5.97;3.97;;;16.70;1.00;;;;;;8341749;28;20189;-66
2023/05/19 10:01:03;;;;;;;80.67;64.50;;;16.90;1.00;;;;;;8348052;28;20197;-65
2023/05/19 10:05:04;;;;;;;5.77;4.37;;;16.70;1.00;;;;;;8352574;28;20220;-68
2023/05/19 10:09:06;;;;;;;5.20;3.57;;;16.50;1.00;;;;;;8346221;28;20279;-68
2023/05/19 10:13:11;;;;;;;15.27;11.60;;;16.60;1.00;;;;;;8348214;28;20214;-68
2023/05/19 10:17:13;;;;;;;6.37;5.07;;;16.60;1.00;;;;;;8360933;28;20190;-68
2023/05/19 10:21:15;;;;;;;5.40;3.80;;;16.80;1.00;;;;;;8353167;28;20200;-69
2023/05/19 10:25:18;;;;;;;4.13;3.03;;;16.60;1.00;;;;;;8341063;28;20199;-68
2023/05/19 10:29:26;;;;;;;3.53;2.43;;;16.30;1.00;;;;;;8344164;28;20190;-68
2023/05/19 10:33:54;;;;;;;8.97;4.80;;;16.10;1.00;;;;;;8339879;28;20264;-67
2023/05/19 10:38:15;;;;;;;5.17;3.10;;;15.80;1.00;;;;;;8348947;28;20177;-66
2023/05/19 10:42:45;;;;;;;8.73;4.33;;;15.40;1.00;;;;;;8337212;28;20203;-68
2023/05/19 10:46:45;;;;;;;5.53;3.50;;;15.30;1.00;;;;;;8344520;28;20189;-67
2023/05/19 10:50:47;;;;;;;7.17;5.50;;;15.20;1.00;;;;;;8342227;28;20192;-68
2023/05/19 10:54:48;;;;;;;6.13;4.27;;;15.20;1.00;;;;;;8345894;28;20217;-68
2023/05/19 10:58:50;;;;;;;6.63;4.50;;;15.30;1.00;;;;;;8339077;28;20263;-68
2023/05/19 11:02:55;;;;;;;4.17;3.37;;;15.30;1.00;;;;;;8347918;28;20228;-67
2023/05/19 11:06:56;;;;;;;3.97;3.33;;;15.30;1.00;;;;;;8340359;28;20206;-66
2023/05/19 11:11:15;;;;;;;6.13;3.50;;;15.20;1.00;;;;;;8344802;28;20190;-68
2023/05/19 11:15:16;;;;;;;3.57;2.67;;;15.20;1.00;;;;;;8335318;28;20260;-67
2023/05/19 11:19:33;;;;;;;4.73;3.67;;;15.20;1.00;;;;;;8345517;28;20194;-67
2023/05/19 11:23:40;;;;;;;6.23;3.53;;;15.20;1.00;;;;;;8348199;28;20274;-68
2023/05/19 11:27:45;;;;;;;3.77;3.37;;;15.40;1.00;;;;;;8342956;28;20197;-68
2023/05/19 11:31:47;;;;;;;3.33;2.27;;;15.50;1.00;;;;;;8342800;28;20182;-68
2023/05/19 11:35:49;;;;;;;3.50;2.27;;;15.60;1.00;;;;;;8342680;28;20183;-68
2023/05/19 11:39:52;;;;;;;3.37;2.70;;;15.80;1.00;;;;;;8341372;28;20197;-71
2023/05/19 11:43:53;;;;;;;5.70;2.83;;;16.00;1.00;;;;;;8337920;28;20201;-69
2023/05/19 11:47:58;;;;;;;5.33;3.30;;;16.40;1.00;;;;;;8344004;28;20190;-69
2023/05/19 11:52:03;;;;;;;4.30;3.03;;;16.80;1.00;;;;;;8329328;28;20208;-68
2023/05/19 11:56:04;;;;;;;5.63;3.00;;;17.20;1.00;;;;;;8344386;28;20234;-68
2023/05/19 12:00:06;;;;;;;5.00;2.70;;;17.50;1.00;;;;;;8340165;28;20185;-69
2023/05/19 12:04:09;;;;;;;8.10;4.43;;;17.80;1.00;;;;;;8345776;28;20273;-68
2023/05/19 12:08:11;;;;;;;5.00;3.07;;;18.30;1.00;;;;;;8341865;28;20232;-67
2023/05/19 12:12:19;;;;;;;6.10;4.53;;;18.70;1.00;;;;;;8341766;28;20239;-68
2023/05/19 12:16:21;;;;;;;8.23;2.63;;;18.80;1.00;;;;;;8346499;28;20193;-67
2023/05/19 12:20:23;;;;;;;4.43;2.30;;;18.70;1.00;;;;;;8344619;28;20213;-67
2023/05/19 12:24:27;;;;;;;7.37;2.83;;;18.00;1.00;;;;;;8334187;28;20201;-67
2023/05/19 12:28:31;;;;;;;5.10;3.87;;;17.60;1.00;;;;;;8343175;28;20244;-67
2023/05/19 12:32:36;;;;;;;7.63;2.77;;;17.50;1.00;;;;;;8335164;28;20210;-68
2023/05/19 12:36:43;;;;;;;8.40;2.80;;;17.40;1.00;;;;;;8341570;28;20182;-70
2023/05/19 12:40:44;;;;;;;4.70;3.13;;;17.20;1.00;;;;;;8345369;28;20238;-69
2023/05/19 12:44:51;;;;;;;5.50;3.60;;;17.00;1.00;;;;;;8348232;28;20177;-70
2023/05/19 12:48:58;;;;;;;5.67;3.50;;;16.80;1.00;;;;;;8351294;28;20224;-70
2023/05/19 12:52:59;;;;;;;4.07;3.00;;;16.60;1.00;;;;;;8355959;28;20216;-69
2023/05/19 12:57:00;;;;;;;4.87;3.53;;;16.50;1.00;;;;;;8342460;28;20190;-69
2023/05/19 13:01:01;;;;;;;5.00;3.30;;;16.30;1.00;;;;;;8341910;28;20200;-69
2023/05/19 13:05:03;;;;;;;3.77;3.00;;;16.20;1.00;;;;;;8347215;28;20236;-68
2023/05/19 13:09:06;;;;;;;5.53;3.90;;;16.10;1.00;;;;;;8358171;28;20209;-68
2023/05/19 13:13:08;;;;;;;5.00;3.43;;;15.90;1.00;;;;;;8332427;28;20213;-69
2023/05/19 13:17:09;;;;;;;3.83;3.30;;;15.70;1.00;;;;;;8339745;28;20293;-69
2023/05/19 13:21:10;;;;;;;7.43;4.47;;;15.70;1.00;;;;;;8342376;28;20178;-69
2023/05/19 13:25:11;;;;;;;6.37;3.33;;;15.60;1.00;;;;;;8340405;28;20190;-68
2023/05/19 13:29:12;;;;;;;4.97;3.90;;;15.70;1.00;;;;;;8349547;28;20219;-68
2023/05/19 13:33:13;;;;;;;12.47;5.60;;;15.90;1.00;;;;;;8340386;28;20265;-68
2023/05/19 13:37:14;;;;;;;5.80;4.70;;;16.10;1.00;;;;;;8348693;28;20190;-66
2023/05/19 13:41:16;;;;;;;6.40;5.00;;;16.20;1.00;;;;;;8346660;28;20201;-69
2023/05/19 13:45:17;;;;;;;5.33;3.70;;;16.20;1.00;;;;;;8342557;28;20271;-68
2023/05/19 13:49:18;;;;;;;7.20;5.50;;;16.30;1.00;;;;;;8338854;28;20194;-68
2023/05/19 13:53:19;;;;;;;6.00;4.83;;;16.60;1.00;;;;;;8343217;28;20212;-69
2023/05/19 13:57:21;;;;;;;8.20;5.47;;;17.00;1.00;;;;;;8346626;28;20186;-70
2023/05/19 14:01:22;;;;;;;6.60;5.57;;;17.10;1.00;;;;;;8342455;28;20193;-68
2023/05/19 14:05:23;;;;;;;6.17;4.90;;;17.10;1.00;;;;;;8346103;28;20218;-68
2023/05/19 14:09:24;;;;;;;7.93;7.13;;;17.00;1.00;;;;;;8347214;28;20221;-67
2023/05/19 14:13:26;;;;;;;4.93;4.10;;;16.80;1.00;;;;;;8350596;28;20213;-69
2023/05/19 14:17:27;;;;;;;4.70;3.40;;;16.70;1.00;;;;;;8346824;28;20186;-68
2023/05/19 14:21:28;;;;;;;5.13;3.63;;;16.80;1.00;;;;;;8343561;28;20190;-68
2023/05/19 14:25:29;;;;;;;8.00;4.33;;;17.10;1.00;;;;;;8350744;28;20205;-68
2023/05/19 14:29:30;;;;;;;7.73;5.23;;;17.40;1.00;;;;;;8346475;28;20201;-66
2023/05/19 14:33:31;;;;;;;6.50;5.00;;;17.70;1.00;;;;;;8361786;28;20268;-65
2023/05/19 14:37:32;;;;;;;8.20;5.80;;;17.40;1.00;;;;;;8347076;28;20188;-67
2023/05/19 14:41:34;;;;;;;5.50;4.00;;;17.00;1.00;;;;;;8351235;28;20194;-68
2023/05/19 14:45:35;;;;;;;10.00;6.40;;;16.60;1.00;;;;;;8345317;28;20193;-67
2023/05/19 14:49:36;;;;;;;10.40;7.30;;;16.30;1.00;;;;;;8341162;28;20196;-68
2023/05/19 14:53:37;;;;;;;6.47;4.80;;;16.30;1.00;;;;;;8347625;28;20201;-69
2023/05/19 14:57:38;;;;;;;5.63;4.73;;;16.30;1.00;;;;;;8350484;28;20189;-69
2023/05/19 15:01:39;;;;;;;5.87;4.53;;;16.40;1.00;;;;;;8349068;28;20186;-69
2023/05/19 15:05:40;;;;;;;9.53;5.33;;;16.40;1.00;;;;;;8337205;28;20212;-68
2023/05/19 15:09:44;;;;;;;9.27;5.77;;;16.20;1.00;;;;;;8341816;28;20207;-68
2023/05/19 15:13:45;;;;;;;6.90;5.20;;;16.10;1.00;;;;;;8346523;28;20223;-68
2023/05/19 15:17:46;;;;;;;6.50;4.60;;;16.10;1.00;;;;;;8350487;28;20240;-68
2023/05/19 15:21:49;;;;;;;9.50;6.10;;;15.80;1.00;;;;;;8340379;28;20283;-67
2023/05/19 15:25:51;;;;;;;8.63;5.30;;;15.70;1.00;;;;;;8348226;28;20194;-68
2023/05/19 15:29:57;;;;;;;3.83;3.43;;;15.60;1.00;;;;;;8345159;28;20197;-68
2023/05/19 15:33:58;;;;;;;8.47;5.70;;;15.40;1.00;;;;;;8343678;28;20214;-67
2023/05/19 15:38:05;;;;;;;8.57;6.53;;;15.40;1.00;;;;;;8332778;28;20189;-71
2023/05/19 15:42:06;;;;;;;5.83;3.93;;;15.30;1.00;;;;;;8341054;28;20212;-69
2023/05/19 15:46:07;;;;;;;5.40;3.53;;;15.20;1.00;;;;;;8347611;28;20185;-68
2023/05/19 15:50:08;;;;;;;7.53;4.17;;;15.10;1.00;;;;;;8341792;28;20203;-68
2023/05/19 15:54:09;;;;;;;6.47;4.57;;;15.00;1.00;;;;;;8362296;28;20209;-69
2023/05/19 15:58:10;;;;;;;8.93;5.07;;;14.90;1.00;;;;;;8346237;28;20251;-68
2023/05/19 16:02:14;;;;;;;4.67;3.80;;;14.80;1.00;;;;;;8342135;28;20194;-68
2023/05/19 16:06:16;;;;;;;5.37;4.07;;;14.80;1.00;;;;;;8346383;28;20185;-67
2023/05/19 16:10:17;;;;;;;5.53;4.60;;;14.70;1.00;;;;;;8336776;28;20186;-67
2023/05/19 16:14:35;;;;;;;11.83;9.23;;;14.50;1.00;;;;;;8345942;28;20213;-66
2023/05/19 16:18:38;;;;;;;5.53;4.50;;;14.40;1.00;;;;;;8354687;28;20232;-67
2023/05/19 16:22:39;;;;;;;3.87;3.30;;;14.30;1.00;;;;;;8343432;28;20197;-67
2023/05/19 16:26:40;;;;;;;4.30;3.13;;;14.10;1.00;;;;;;8348897;28;20202;-68
2023/05/19 16:30:42;;;;;;;7.40;6.00;;;14.10;3.50;;;;;;8348174;28;20267;-70
2023/05/19 16:34:43;;;;;;;25.57;13.30;;;14.10;11.20;;;;;;8345864;28;20240;-66
2023/05/19 16:38:45;;;;;;;13.27;7.23;;;14.10;8.60;;;;;;8343204;28;20296;-70
2023/05/19 16:42:46;;;;;;;14.57;8.73;;;14.10;10.90;;;;;;8345303;28;20204;-69
2023/05/19 16:46:47;;;;;;;8.23;4.90;;;14.10;12.10;;;;;;8354689;28;20221;-68
2023/05/19 16:50:48;;;;;;;8.77;5.73;;;14.00;18.50;;;;;;8329689;28;20192;-67
2023/05/19 16:54:49;;;;;;;6.33;4.17;;;13.90;24.90;;;;;;8340219;28;20214;-68
2023/05/19 16:58:51;;;;;;;7.53;5.50;;;13.90;29.20;;;;;;8342746;28;20196;-69
2023/05/19 17:02:52;;;;;;;6.23;3.80;;;13.90;35.80;;;;;;8342623;28;20224;-70
2023/05/19 17:06:53;;;;;;;4.90;3.10;;;13.90;35.40;;;;;;8339029;28;20205;-69
2023/05/19 17:10:54;;;;;;;5.03;3.40;;;13.90;36.50;;;;;;8334127;28;20270;-68
2023/05/19 17:14:56;;;;;;;8.90;5.40;;;13.80;44.60;;;;;;8345206;28;20257;-69
2023/05/19 17:18:57;;;;;;;8.60;4.30;;;13.80;53.90;;;;;;8335083;28;20190;-68
2023/05/19 17:23:01;;;;;;;5.73;3.63;;;13.70;58.20;;;;;;8346108;28;20244;-66
2023/05/19 17:27:02;;;;;;;15.73;8.60;;;13.70;67.70;;;;;;8355577;28;20198;-69
2023/05/19 17:31:11;;;;;;;14.33;7.40;;;13.70;74.80;;;;;;8347785;28;20186;-67
2023/05/19 17:35:15;;;;;;;13.97;8.27;;;13.70;95.50;;;;;;8349431;28;20218;-69
2023/05/19 17:39:18;;;;;;;16.57;9.50;;;13.70;90.70;;;;;;8356745;28;20195;-68
2023/05/19 17:43:20;;;;;;;9.03;5.80;;;13.60;93.40;;;;;;8351716;28;20194;-67
2023/05/19 17:47:21;;;;;;;10.90;5.60;;;13.60;93.60;;;;;;8347208;28;20194;-70
2023/05/19 17:51:22;;;;;;;7.23;4.30;;;13.50;96.20;;;;;;8350621;28;20281;-69
2023/05/19 17:55:28;;;;;;;9.87;5.73;;;13.50;98.90;;;;;;8354363;28;20252;-69
2023/05/19 17:59:30;;;;;;;8.57;6.17;;;13.40;99.90;;;;;;8352059;28;20190;-67
2023/05/19 18:03:31;;;;;;;11.33;7.10;;;13.30;99.90;;;;;;8365836;28;20214;-69
2023/05/19 18:07:40;;;;;;;10.27;6.70;;;13.20;99.90;;;;;;8350747;28;20206;-69
2023/05/19 18:11:41;;;;;;;9.30;5.67;;;13.10;99.90;;;;;;8348198;28;20192;-66
2023/05/19 18:15:42;;;;;;;9.23;7.23;;;13.10;99.90;;;;;;8355220;28;20236;-68
2023/05/19 18:19:43;;;;;;;16.43;9.90;;;13.00;99.90;;;;;;8341122;28;20260;-68
2023/05/19 18:23:45;;;;;;;8.73;5.83;;;13.00;99.90;;;;;;8345935;28;20271;-68
2023/05/19 18:27:46;;;;;;;6.03;4.90;;;12.90;99.90;;;;;;8348679;28;20201;-70
2023/05/19 18:31:48;;;;;;;8.20;5.20;;;12.90;99.90;;;;;;8343114;28;20186;-67
2023/05/19 18:35:48;;;;;;;8.47;6.00;;;12.90;99.90;;;;;;8356616;28;20211;-67
2023/05/19 18:39:50;;;;;;;7.17;5.90;;;12.90;99.90;;;;;;8348643;28;20288;-69
2023/05/19 18:43:51;;;;;;;21.50;10.73;;;12.80;99.90;;;;;;8340881;28;20194;-68
2023/05/19 18:47:52;;;;;;;9.30;6.43;;;12.80;99.90;;;;;;8349384;28;20213;-67
2023/05/19 18:51:56;;;;;;;10.00;6.53;;;12.80;99.90;;;;;;8348534;28;20217;-68
2023/05/19 18:55:57;;;;;;;11.93;7.07;;;12.70;99.90;;;;;;8348514;28;20217;-69
2023/05/19 18:59:58;;;;;;;10.70;7.83;;;12.70;99.90;;;;;;8357885;28;20232;-68
2023/05/19 19:04:00;;;;;;;16.13;8.63;;;12.70;99.90;;;;;;8349330;28;20301;-69
2023/05/19 19:08:04;;;;;;;13.47;7.40;;;12.60;99.90;;;;;;8357279;28;20212;-66
2023/05/19 19:12:09;;;;;;;12.27;8.20;;;12.50;99.90;;;;;;8361266;28;20278;-65
2023/05/19 19:16:10;;;;;;;10.73;6.30;;;12.50;99.90;;;;;;8347305;28;20201;-65
2023/05/19 19:20:13;;;;;;;18.30;9.17;;;12.50;99.90;;;;;;8341547;28;20183;-65
2023/05/19 19:24:14;;;;;;;8.83;6.40;;;12.40;99.90;;;;;;8367924;28;20269;-66
2023/05/19 19:28:16;;;;;;;7.47;6.37;;;12.40;99.90;;;;;;8347911;28;20182;-67
2023/05/19 19:32:18;;;;;;;11.27;7.00;;;12.40;99.90;;;;;;8350343;28;20262;-65
2023/05/19 19:36:20;;;;;;;10.67;7.50;;;12.40;99.90;;;;;;8345564;28;20209;-65
2023/05/19 19:40:22;;;;;;;10.57;7.33;;;12.40;99.90;;;;;;8347798;28;20189;-65
2023/05/19 19:44:23;;;;;;;11.10;6.70;;;12.30;99.90;;;;;;8348668;28;20205;-69
2023/05/19 19:48:24;;;;;;;11.93;7.57;;;12.30;99.90;;;;;;8352109;28;20260;-69
2023/05/19 19:52:25;;;;;;;10.67;7.00;;;12.30;99.90;;;;;;8349121;28;20336;-68
2023/05/19 19:56:26;;;;;;;8.93;6.40;;;12.30;99.90;;;;;;8345700;28;20216;-67
2023/05/19 20:00:27;;;;;;;8.90;6.40;;;12.30;99.90;;;;;;8348486;28;20186;-68
2023/05/19 20:04:28;;;;;;;11.83;6.67;;;12.30;99.90;;;;;;8346767;28;20222;-68
2023/05/19 20:08:29;;;;;;;11.10;6.47;;;12.20;99.90;;;;;;8352667;28;20217;-68
2023/05/19 20:12:30;;;;;;;8.47;6.33;;;12.20;99.90;;;;;;8348205;28;20214;-66
2023/05/19 20:16:31;;;;;;;12.60;7.20;;;12.20;99.90;;;;;;8346189;28;20182;-68
2023/05/19 20:20:32;;;;;;;8.73;6.13;;;12.20;99.90;;;;;;8346500;28;20181;-70
2023/05/19 20:24:34;;;;;;;10.67;6.60;;;12.20;99.90;;;;;;8353762;28;20278;-70
2023/05/19 20:28:35;;;;;;;7.67;6.20;;;12.20;99.90;;;;;;8349533;28;20197;-70
2023/05/19 20:32:36;;;;;;;8.23;6.07;;;12.20;99.90;;;;;;8345327;28;20205;-72
2023/05/19 20:36:40;;;;;;;11.20;8.57;;;12.10;99.90;;;;;;8349250;28;20199;-69
2023/05/19 20:40:42;;;;;;;9.70;7.00;;;12.10;99.90;;;;;;8346354;28;20268;-69
2023/05/19 20:44:43;;;;;;;10.23;6.73;;;12.10;99.90;;;;;;8351043;28;20224;-69
2023/05/19 20:48:44;;;;;;;10.57;7.67;;;12.10;99.90;;;;;;8345006;28;20201;-68
2023/05/19 20:52:45;;;;;;;8.83;6.80;;;12.10;99.90;;;;;;8342538;28;20290;-69
2023/05/19 20:56:46;;;;;;;8.73;7.00;;;12.10;99.90;;;;;;8363956;28;20185;-68
2023/05/19 21:00:52;;;;;;;10.63;7.83;;;12.10;99.90;;;;;;8350635;28;20216;-70
2023/05/19 21:04:53;;;;;;;11.20;8.93;;;12.10;99.90;;;;;;8355482;28;20240;-68
2023/05/19 21:08:54;;;;;;;14.63;9.07;;;12.10;99.90;;;;;;8354793;28;20236;-69
2023/05/19 21:12:57;;;;;;;10.97;8.23;;;12.10;99.90;;;;;;8354066;28;20224;-69
2023/05/19 21:16:58;;;;;;;9.80;7.53;;;12.00;99.90;;;;;;8358098;28;20184;-68